createdAt,value
2023-03-15T00:00:42.846Z,99664.44
2023-03-15T00:01:46.853Z,99665.47
2023-03-15T00:02:49.126Z,99665.72
2023-03-15T00:03:51.509Z,99664.84
2023-03-15T00:04:55.068Z,99662.97
2023-03-15T00:05:57.307Z,99662.34
2023-03-15T00:06:59.941Z,99668.84
2023-03-15T00:08:04.596Z,99667.22
2023-03-15T00:09:06.872Z,99669.06
2023-03-15T00:10:09.548Z,99671.81
2023-03-15T00:11:11.874Z,99669.53
2023-03-15T00:12:14.139Z,99674.13
2023-03-15T00:13:17.748Z,99667.03
2023-03-15T00:14:20.931Z,99671.63
2023-03-15T00:15:23.131Z,99680.00
2023-03-15T00:16:27.266Z,99677.28
2023-03-15T00:17:29.683Z,99666.84
2023-03-15T00:18:32.232Z,99675.03
2023-03-15T00:19:34.458Z,99682.34
2023-03-15T00:20:37.949Z,99686.09
2023-03-15T00:21:44.867Z,99681.75
2023-03-15T00:22:47.199Z,99688.22
2023-03-15T00:23:49.612Z,99694.50
2023-03-15T00:24:51.765Z,99691.19
2023-03-15T00:25:55.056Z,99697.66
2023-03-15T00:26:58.539Z,99696.81
2023-03-15T00:28:00.831Z,99698.72
2023-03-15T00:29:03.676Z,99703.34
2023-03-15T00:30:07.066Z,99702.47
2023-03-15T00:31:21.673Z,99704.38
2023-03-15T00:32:25.835Z,99707.09
2023-03-15T00:33:28.117Z,99704.59
2023-03-15T00:34:33.850Z,99707.31
2023-03-15T00:35:41.673Z,99702.94
2023-03-15T00:36:44.015Z,99700.44
2023-03-15T00:37:46.227Z,99705.88
2023-03-15T00:38:48.438Z,99714.03
2023-03-15T00:39:50.696Z,99715.09
2023-03-15T00:40:52.820Z,99709.88
2023-03-15T00:41:57.165Z,99714.25
2023-03-15T00:43:00.100Z,99714.69
2023-03-15T00:44:04.526Z,99716.56
2023-03-15T00:45:08.017Z,99716.56
2023-03-15T00:46:11.753Z,99713.00
2023-03-15T00:47:15.018Z,99721.16
2023-03-15T00:48:17.321Z,99718.66
2023-03-15T00:49:19.545Z,99719.72
2023-03-15T00:50:23.616Z,99717.00
2023-03-15T00:51:25.944Z,99718.06
2023-03-15T00:52:30.026Z,99720.97
2023-03-15T00:53:32.846Z,99722.06
2023-03-15T00:54:35.093Z,99719.34
2023-03-15T00:55:37.359Z,99718.47
2023-03-15T00:56:40.008Z,99722.25
2023-03-15T00:57:44.102Z,99723.31
2023-03-15T00:58:47.426Z,99724.38
2023-03-15T00:59:49.762Z,99723.50
2023-03-15T01:00:52.116Z,99716.19
2023-03-15T01:01:54.384Z,99723.72
2023-03-15T01:02:57.869Z,99721.88
2023-03-15T01:04:00.106Z,99726.47
2023-03-15T01:05:02.788Z,99725.41
2023-03-15T01:06:10.631Z,99732.97
2023-03-15T01:07:12.868Z,99729.41
2023-03-15T01:08:15.097Z,99730.44
2023-03-15T01:09:17.424Z,99727.72
2023-03-15T01:10:20.798Z,99733.16
2023-03-15T01:11:26.213Z,99731.53
2023-03-15T01:12:32.716Z,99728.16
2023-03-15T01:13:35.950Z,99735.50
2023-03-15T01:14:39.519Z,99728.16
2023-03-15T01:15:46.858Z,99742.59
2023-03-15T01:16:49.340Z,99731.09
2023-03-15T01:17:51.790Z,99732.78
2023-03-15T01:18:54.450Z,99742.81
2023-03-15T01:19:56.755Z,99737.59
2023-03-15T01:20:59.854Z,99745.75
2023-03-15T01:22:02.091Z,99743.03
2023-03-15T01:23:04.243Z,99743.47
2023-03-15T01:24:06.837Z,99746.78
2023-03-15T01:25:09.894Z,99747.84
2023-03-15T01:26:17.739Z,99738.63
2023-03-15T01:27:20.988Z,99743.25
2023-03-15T01:28:23.476Z,99743.25
2023-03-15T01:29:25.776Z,99740.53
2023-03-15T01:30:27.973Z,99740.75
2023-03-15T01:31:31.339Z,99747.03
2023-03-15T01:32:33.966Z,99747.03
2023-03-15T01:33:36.161Z,99746.19
2023-03-15T01:34:38.434Z,99753.28
2023-03-15T01:35:40.774Z,99750.78
2023-03-15T01:36:43.099Z,99749.09
2023-03-15T01:37:45.507Z,99750.78
2023-03-15T01:38:49.711Z,99748.28
2023-03-15T01:39:55.351Z,99749.09
2023-03-15T01:40:58.669Z,99751.00
2023-03-15T01:42:02.346Z,99756.44
2023-03-15T01:43:04.897Z,99753.94
2023-03-15T01:44:13.866Z,99754.78
2023-03-15T01:46:03.436Z,99753.09
2023-03-15T01:47:08.906Z,99758.53
2023-03-15T01:48:13.138Z,99763.97
2023-03-15T01:49:23.070Z,99765.03
2023-03-15T01:50:25.935Z,99768.81
2023-03-15T01:51:37.184Z,99759.78
2023-03-15T01:52:41.985Z,99767.13
2023-03-15T01:54:06.727Z,99766.31
2023-03-15T01:55:15.992Z,99761.91
2023-03-15T01:57:09.191Z,99769.22
2023-03-15T01:58:12.269Z,99764.84
2023-03-15T01:59:26.333Z,99766.72
2023-03-15T02:00:28.516Z,99766.94
2023-03-15T02:01:37.072Z,99760.66
2023-03-15T02:03:10.124Z,99765.25
2023-03-15T02:04:25.141Z,99764.44
2023-03-15T02:05:33.513Z,99764.66
2023-03-15T02:06:38.606Z,99761.94
2023-03-15T02:07:51.153Z,99759.44
2023-03-15T02:09:01.752Z,99766.75
2023-03-15T02:10:12.230Z,99772.19
2023-03-15T02:11:20.148Z,99766.75
2023-03-15T02:12:23.348Z,99772.19
2023-03-15T02:13:29.395Z,99768.84
2023-03-15T02:14:35.843Z,99763.59
2023-03-15T02:15:47.085Z,99770.94
2023-03-15T02:16:56.272Z,99763.00
2023-03-15T02:17:58.545Z,99764.03
2023-03-15T02:19:01.024Z,99757.78
2023-03-15T02:20:18.258Z,99762.34
2023-03-15T02:22:03.445Z,99762.34
2023-03-15T02:23:28.547Z,99768.00
2023-03-15T02:24:51.466Z,99779.72
2023-03-15T02:26:19.574Z,99769.06
2023-03-15T02:27:36.959Z,99777.44
2023-03-15T02:28:41.171Z,99776.41
2023-03-15T02:29:43.513Z,99767.59
2023-03-15T02:30:47.337Z,99775.75
2023-03-15T02:31:50.011Z,99774.94
2023-03-15T02:32:52.481Z,99773.25
2023-03-15T02:33:57.645Z,99782.44
2023-03-15T02:34:59.896Z,99770.75
2023-03-15T02:36:22.444Z,99780.78
2023-03-15T02:37:24.656Z,99776.41
2023-03-15T02:38:28.517Z,99779.13
2023-03-15T02:39:30.696Z,99782.88
2023-03-15T02:40:32.854Z,99791.03
2023-03-15T02:41:44.963Z,99775.78
2023-03-15T02:42:52.457Z,99784.78
2023-03-15T02:43:59.029Z,99781.22
2023-03-15T02:45:01.584Z,99789.59
2023-03-15T02:46:05.055Z,99789.59
2023-03-15T02:47:16.739Z,99795.84
2023-03-15T02:48:20.402Z,99796.06
2023-03-15T02:49:28.085Z,99796.91
2023-03-15T02:50:31.531Z,99805.91
2023-03-15T02:51:34.494Z,99800.69
2023-03-15T02:52:36.729Z,99806.13
2023-03-15T02:53:38.905Z,99799.00
2023-03-15T02:54:43.817Z,99796.28
2023-03-15T02:55:46.456Z,99810.69
2023-03-15T02:56:48.688Z,99807.97
2023-03-15T02:57:51.095Z,99807.16
2023-03-15T02:58:53.339Z,99805.25
2023-03-15T02:59:56.110Z,99804.66
2023-03-15T03:00:58.479Z,99816.34
2023-03-15T03:02:01.005Z,99816.34
2023-03-15T03:03:03.315Z,99813.63
2023-03-15T03:04:07.294Z,99813.84
2023-03-15T03:05:10.268Z,99816.56
2023-03-15T03:06:14.274Z,99813.03
2023-03-15T03:07:16.795Z,99823.06
2023-03-15T03:08:25.257Z,99826.63
2023-03-15T03:09:28.138Z,99814.88
2023-03-15T03:10:30.586Z,99819.50
2023-03-15T03:11:36.822Z,99828.50
2023-03-15T03:12:39.349Z,99828.69
2023-03-15T03:13:43.362Z,99829.53
2023-03-15T03:14:45.666Z,99825.16
2023-03-15T03:15:58.789Z,99822.44
2023-03-15T03:17:04.459Z,99833.50
2023-03-15T03:18:06.698Z,99832.47
2023-03-15T03:19:12.777Z,99840.63
2023-03-15T03:20:16.665Z,99839.59
2023-03-15T03:21:21.848Z,99840.84
2023-03-15T03:22:25.577Z,99843.56
2023-03-15T03:23:27.910Z,99838.94
2023-03-15T03:24:31.833Z,99843.56
2023-03-15T03:25:34.168Z,99847.31
2023-03-15T03:26:37.906Z,99842.91
2023-03-15T03:27:41.165Z,99849.22
2023-03-15T03:28:47.722Z,99856.50
2023-03-15T03:29:50.926Z,99853.78
2023-03-15T03:30:54.922Z,99857.56
2023-03-15T03:31:57.398Z,99856.72
2023-03-15T03:32:59.785Z,99857.75
2023-03-15T03:34:07.806Z,99860.47
2023-03-15T03:35:10.809Z,99863.19
2023-03-15T03:36:13.265Z,99866.13
2023-03-15T03:37:19.953Z,99859.00
2023-03-15T03:38:28.822Z,99871.78
2023-03-15T03:39:33.338Z,99870.97
2023-03-15T03:40:37.657Z,99870.09
2023-03-15T03:41:41.127Z,99872.22
2023-03-15T03:42:46.216Z,99871.56
2023-03-15T03:43:49.062Z,99869.69
2023-03-15T03:44:51.963Z,99879.09
2023-03-15T03:45:55.350Z,99874.72
2023-03-15T03:46:57.550Z,99876.56
2023-03-15T03:47:59.914Z,99886.63
2023-03-15T03:49:03.202Z,99878.69
2023-03-15T03:50:05.900Z,99887.88
2023-03-15T03:51:08.135Z,99883.47
2023-03-15T03:52:10.461Z,99883.69
2023-03-15T03:53:13.105Z,99891.00
2023-03-15T03:54:17.506Z,99891.19
2023-03-15T03:55:20.039Z,99889.53
2023-03-15T03:56:22.185Z,99895.16
2023-03-15T03:57:24.448Z,99893.50
2023-03-15T03:58:26.654Z,99892.66
2023-03-15T03:59:46.312Z,99896.41
2023-03-15T04:00:49.873Z,99894.75
2023-03-15T04:01:55.107Z,99893.91
2023-03-15T04:03:02.138Z,99894.94
2023-03-15T04:04:06.676Z,99894.31
2023-03-15T04:05:11.317Z,99894.53
2023-03-15T04:06:14.267Z,99898.28
2023-03-15T04:07:19.823Z,99891.16
2023-03-15T04:08:25.008Z,99894.94
2023-03-15T04:09:27.701Z,99897.66
2023-03-15T04:10:30.115Z,99899.75
2023-03-15T04:11:32.544Z,99899.97
2023-03-15T04:12:39.140Z,99899.97
2023-03-15T04:13:41.380Z,99899.97
2023-03-15T04:14:43.931Z,99903.06
2023-03-15T04:15:48.180Z,99911.22
2023-03-15T04:16:51.727Z,99907.66
2023-03-15T04:17:58.549Z,99912.47
2023-03-15T04:19:08.132Z,99909.75
2023-03-15T04:20:13.152Z,99913.50
2023-03-15T04:21:23.200Z,99914.56
2023-03-15T04:22:29.166Z,99922.72
2023-03-15T04:23:54.267Z,99918.31
2023-03-15T04:25:12.863Z,99923.97
2023-03-15T04:26:29.782Z,99927.72
2023-03-15T04:27:58.991Z,99926.03
2023-03-15T04:29:19.380Z,99931.47
2023-03-15T04:30:43.210Z,99922.69
2023-03-15T04:32:05.659Z,99927.25
2023-03-15T04:33:24.938Z,99934.59
2023-03-15T04:34:56.269Z,99937.53
2023-03-15T04:36:08.529Z,99940.22
2023-03-15T04:37:19.761Z,99936.88
2023-03-15T04:38:36.917Z,99942.31
2023-03-15T04:40:03.416Z,99946.91
2023-03-15T04:41:18.524Z,99952.53
2023-03-15T04:42:40.155Z,99948.97
2023-03-15T04:44:07.285Z,99951.91
2023-03-15T04:45:28.920Z,99957.34
2023-03-15T04:46:58.464Z,99946.69
2023-03-15T04:48:11.491Z,99955.66
2023-03-15T04:49:39.633Z,99959.41
2023-03-15T04:50:51.585Z,99956.69
2023-03-15T04:52:07.037Z,99964.84
2023-03-15T04:53:35.294Z,99962.97
2023-03-15T04:55:00.663Z,99965.88
2023-03-15T04:56:30.973Z,99961.09
2023-03-15T04:57:52.846Z,99966.72
2023-03-15T04:59:22.125Z,99961.50
2023-03-15T05:00:42.998Z,99971.28
2023-03-15T05:02:03.882Z,99966.06
2023-03-15T05:03:16.085Z,99965.25
2023-03-15T05:04:18.413Z,99962.53
2023-03-15T05:05:33.244Z,99967.97
2023-03-15T05:06:47.997Z,99975.25
2023-03-15T05:08:11.252Z,99977.97
2023-03-15T05:09:39.807Z,99979.84
2023-03-15T05:11:11.317Z,99982.56
2023-03-15T05:12:33.929Z,99979.03
2023-03-15T05:13:58.663Z,99979.84
2023-03-15T05:15:39.629Z,99985.50
2023-03-15T05:17:08.208Z,99989.25
2023-03-15T05:18:19.620Z,99984.84
2023-03-15T05:19:42.557Z,100004.06
2023-03-15T05:21:02.168Z,100001.56
2023-03-15T05:22:41.039Z,100009.91
2023-03-15T05:23:46.059Z,99997.34
2023-03-15T05:25:12.487Z,100004.69
2023-03-15T05:26:35.165Z,99996.72
2023-03-15T05:27:53.027Z,99997.78
2023-03-15T05:29:30.873Z,100011.34
2023-03-15T05:30:48.736Z,100002.56
2023-03-15T05:31:57.635Z,100007.97
2023-03-15T05:33:05.355Z,100012.59
2023-03-15T05:34:17.570Z,100019.88
2023-03-15T05:35:37.182Z,100020.91
2023-03-15T05:36:59.308Z,100019.06
2023-03-15T05:38:14.621Z,100015.69
2023-03-15T05:39:35.079Z,100022.78
2023-03-15T05:40:51.526Z,100026.34
2023-03-15T05:42:15.680Z,100032.84
2023-03-15T05:43:47.938Z,100026.53
2023-03-15T05:45:08.058Z,100022.13
2023-03-15T05:46:25.769Z,100026.53
2023-03-15T05:47:45.376Z,100032.84
2023-03-15T05:49:07.938Z,100039.91
2023-03-15T05:50:15.490Z,100044.53
2023-03-15T05:51:29.057Z,100039.91
2023-03-15T05:52:47.301Z,100047.03
2023-03-15T05:54:06.115Z,100054.81
2023-03-15T05:55:27.946Z,100052.09
2023-03-15T05:56:50.469Z,100056.28
2023-03-15T05:58:08.121Z,100063.19
2023-03-15T05:59:19.900Z,100063.00
2023-03-15T06:00:43.515Z,100063.41
2023-03-15T06:01:57.041Z,100060.31
2023-03-15T06:03:05.652Z,100064.31
2023-03-15T06:04:16.903Z,100067.47
2023-03-15T06:05:19.852Z,100071.47
2023-03-15T06:06:22.463Z,100068.13
2023-03-15T06:07:25.110Z,100074.88
2023-03-15T06:08:27.436Z,100070.50
2023-03-15T06:09:30.466Z,100072.22
2023-03-15T06:10:33.885Z,100064.31
2023-03-15T06:11:41.177Z,100074.19
2023-03-15T06:12:47.016Z,100076.94
2023-03-15T06:13:50.472Z,100073.00
2023-03-15T06:15:07.429Z,100074.94
2023-03-15T06:16:09.771Z,100074.75
2023-03-15T06:17:16.435Z,100076.25
2023-03-15T06:18:19.822Z,100081.31
2023-03-15T06:19:24.303Z,100080.72
2023-03-15T06:20:29.127Z,100085.53
2023-03-15T06:21:35.815Z,100089.34
2023-03-15T06:22:43.539Z,100091.25
2023-03-15T06:23:57.767Z,100094.78
2023-03-15T06:25:00.011Z,100100.47
2023-03-15T06:26:02.350Z,100099.63
2023-03-15T06:27:05.945Z,100098.78
2023-03-15T06:28:10.469Z,100097.94
2023-03-15T06:29:17.463Z,100107.75
2023-03-15T06:30:23.135Z,100098.72
2023-03-15T06:31:30.135Z,100106.44
2023-03-15T06:32:38.088Z,100100.53
2023-03-15T06:33:40.801Z,100106.78
2023-03-15T06:34:46.425Z,100098.53
2023-03-15T06:35:50.540Z,100091.94
2023-03-15T06:36:52.877Z,100100.06
2023-03-15T06:37:55.171Z,100090.72
2023-03-15T06:38:57.500Z,100097.78
2023-03-15T06:39:59.996Z,100090.09
2023-03-15T06:41:05.324Z,100103.41
2023-03-15T06:42:13.757Z,100098.44
2023-03-15T06:43:22.175Z,100105.22
2023-03-15T06:44:24.397Z,100107.41
2023-03-15T06:45:32.010Z,100108.94
2023-03-15T06:46:34.816Z,100111.06
2023-03-15T06:47:37.245Z,100113.66
2023-03-15T06:48:40.258Z,100120.38
2023-03-15T06:49:45.337Z,100123.56
2023-03-15T06:50:49.199Z,100115.56
2023-03-15T06:51:52.820Z,100119.78
2023-03-15T06:52:57.313Z,100116.41
2023-03-15T06:54:01.114Z,100111.31
2023-03-15T06:55:05.667Z,100123.50
2023-03-15T06:56:07.893Z,100121.97
2023-03-15T06:57:10.529Z,100117.34
2023-03-15T06:58:13.193Z,100116.84
2023-03-15T06:59:15.477Z,100126.50
2023-03-15T07:00:18.581Z,100125.78
2023-03-15T07:01:20.762Z,100131.84
2023-03-15T07:02:26.175Z,100126.91
2023-03-15T07:03:28.403Z,100129.44
2023-03-15T07:04:34.783Z,100126.13
2023-03-15T07:05:37.434Z,100127.75
2023-03-15T07:06:39.726Z,100121.13
2023-03-15T07:07:41.961Z,100126.31
2023-03-15T07:08:44.526Z,100118.84
2023-03-15T07:09:48.038Z,100123.78
2023-03-15T07:10:51.091Z,100118.19
2023-03-15T07:11:53.366Z,100118.09
2023-03-15T07:12:55.579Z,100118.25
2023-03-15T07:13:58.884Z,100131.69
2023-03-15T07:15:01.193Z,100118.31
2023-03-15T07:16:03.974Z,100124.81
2023-03-15T07:17:07.956Z,100123.06
2023-03-15T07:18:10.286Z,100119.88
2023-03-15T07:19:13.614Z,100124.69
2023-03-15T07:20:15.938Z,100120.41
2023-03-15T07:21:18.235Z,100120.19
2023-03-15T07:22:24.980Z,100119.25
2023-03-15T07:23:28.361Z,100125.97
2023-03-15T07:24:30.963Z,100129.09
2023-03-15T07:25:35.952Z,100128.63
2023-03-15T07:26:44.516Z,100133.41
2023-03-15T07:27:46.858Z,100134.59
2023-03-15T07:28:52.373Z,100132.22
2023-03-15T07:29:55.780Z,100122.38
2023-03-15T07:31:02.461Z,100130.19
2023-03-15T07:32:05.714Z,100130.25
2023-03-15T07:33:08.050Z,100125.88
2023-03-15T07:34:10.609Z,100123.69
2023-03-15T07:35:13.743Z,100126.78
2023-03-15T07:36:16.233Z,100124.63
2023-03-15T07:37:18.505Z,100125.75
2023-03-15T07:38:26.272Z,100126.06
2023-03-15T07:39:29.961Z,100120.00
2023-03-15T07:40:32.630Z,100118.09
2023-03-15T07:41:36.423Z,100127.28
2023-03-15T07:42:43.342Z,100133.94
2023-03-15T07:43:47.908Z,100127.03
2023-03-15T07:44:53.033Z,100132.03
2023-03-15T07:45:55.679Z,100132.34
2023-03-15T07:46:58.459Z,100126.03
2023-03-15T07:48:02.247Z,100131.28
2023-03-15T07:49:04.691Z,100132.09
2023-03-15T07:50:07.298Z,100126.03
2023-03-15T07:51:09.569Z,100129.88
2023-03-15T07:52:11.958Z,100130.97
2023-03-15T07:53:14.386Z,100131.56
2023-03-15T07:54:19.092Z,100129.34
2023-03-15T07:55:21.261Z,100132.91
2023-03-15T07:56:23.543Z,100135.44
2023-03-15T07:57:28.363Z,100125.47
2023-03-15T07:58:31.440Z,100133.22
2023-03-15T07:59:33.835Z,100134.31
2023-03-15T08:00:36.347Z,100137.06
2023-03-15T08:01:38.772Z,100135.44
2023-03-15T08:02:41.084Z,100147.88
2023-03-15T08:03:43.921Z,100142.06
2023-03-15T08:04:48.740Z,100138.44
2023-03-15T08:05:51.262Z,100142.31
2023-03-15T08:06:53.508Z,100139.84
2023-03-15T08:07:56.785Z,100146.13
2023-03-15T08:09:01.822Z,100144.75
2023-03-15T08:10:06.833Z,100148.28
2023-03-15T08:11:10.634Z,100154.34
2023-03-15T08:12:12.939Z,100164.25
2023-03-15T08:13:15.337Z,100162.28
2023-03-15T08:14:17.611Z,100164.72
2023-03-15T08:15:23.362Z,100161.91
2023-03-15T08:16:25.696Z,100174.72
2023-03-15T08:17:27.878Z,100170.28
2023-03-15T08:18:30.345Z,100168.25
2023-03-15T08:19:33.038Z,100171.22
2023-03-15T08:20:36.638Z,100168.09
2023-03-15T08:21:38.965Z,100175.97
2023-03-15T08:22:47.258Z,100188.34
2023-03-15T08:23:50.074Z,100185.19
2023-03-15T08:24:53.731Z,100189.22
2023-03-15T08:25:56.608Z,100185.25
2023-03-15T08:26:58.961Z,100185.97
2023-03-15T08:28:01.576Z,100192.75
2023-03-15T08:29:04.189Z,100187.94
2023-03-15T08:30:06.940Z,100197.75
2023-03-15T08:31:09.926Z,100195.41
2023-03-15T08:32:13.940Z,100190.06
2023-03-15T08:33:16.365Z,100199.00
2023-03-15T08:34:18.624Z,100206.25
2023-03-15T08:35:22.365Z,100218.78
2023-03-15T08:36:24.791Z,100215.28
2023-03-15T08:37:27.188Z,100225.59
2023-03-15T08:38:29.499Z,100226.75
2023-03-15T08:39:31.712Z,100232.66
2023-03-15T08:40:33.989Z,100229.72
2023-03-15T08:41:36.293Z,100234.47
2023-03-15T08:42:38.899Z,100241.44
2023-03-15T08:43:41.222Z,100244.56
2023-03-15T08:44:43.600Z,100239.09
2023-03-15T08:46:00.328Z,100246.88
2023-03-15T08:47:03.766Z,100252.16
2023-03-15T08:48:06.986Z,100256.38
2023-03-15T08:49:11.244Z,100249.31
2023-03-15T08:50:15.614Z,100254.56
2023-03-15T08:51:17.967Z,100249.94
2023-03-15T08:52:21.882Z,100246.09
2023-03-15T08:53:25.417Z,100247.53
2023-03-15T08:54:27.733Z,100243.72
2023-03-15T08:55:30.295Z,100234.41
2023-03-15T08:56:33.880Z,100242.13
2023-03-15T08:57:36.128Z,100242.72
2023-03-15T08:58:38.316Z,100244.13
2023-03-15T08:59:40.749Z,100242.53
2023-03-15T09:00:44.150Z,100241.00
2023-03-15T09:01:46.396Z,100244.06
2023-03-15T09:02:50.294Z,100241.19
2023-03-15T09:03:52.679Z,100244.63
2023-03-15T09:04:54.961Z,100241.38
2023-03-15T09:05:58.400Z,100253.88
2023-03-15T09:07:00.661Z,100250.75
2023-03-15T09:08:05.603Z,100254.19
2023-03-15T09:09:08.247Z,100246.66
2023-03-15T09:10:15.465Z,100252.38
2023-03-15T09:11:17.745Z,100245.69
2023-03-15T09:12:21.379Z,100243.41
2023-03-15T09:13:24.459Z,100250.78
2023-03-15T09:14:26.666Z,100248.28
2023-03-15T09:15:28.901Z,100242.19
2023-03-15T09:16:35.281Z,100247.66
2023-03-15T09:17:39.546Z,100257.56
2023-03-15T09:18:44.162Z,100246.59
2023-03-15T09:19:46.414Z,100253.78
2023-03-15T09:20:49.443Z,100252.91
2023-03-15T09:21:51.860Z,100255.66
2023-03-15T09:22:56.782Z,100251.25
2023-03-15T09:23:59.531Z,100259.25
2023-03-15T09:25:02.168Z,100260.31
2023-03-15T09:26:04.417Z,100257.56
2023-03-15T09:27:06.652Z,100247.44
2023-03-15T09:28:11.668Z,100259.25
2023-03-15T09:29:14.281Z,100259.84
2023-03-15T09:30:20.412Z,100265.31
2023-03-15T09:31:22.817Z,100259.84
2023-03-15T09:32:25.185Z,100251.63
2023-03-15T09:33:27.435Z,100261.06
2023-03-15T09:34:33.322Z,100255.81
2023-03-15T09:35:42.604Z,100252.63
2023-03-15T09:36:45.763Z,100258.94
2023-03-15T09:37:50.795Z,100259.53
2023-03-15T09:38:53.063Z,100258.44
2023-03-15T09:39:56.077Z,100254.66
2023-03-15T09:40:59.498Z,100259.91
2023-03-15T09:42:06.502Z,100255.28
2023-03-15T09:43:12.712Z,100255.28
2023-03-15T09:44:17.866Z,100265.13
2023-03-15T09:45:56.951Z,100265.13
2023-03-15T09:47:27.075Z,100263.50
2023-03-15T09:48:36.245Z,100256.34
2023-03-15T09:49:49.415Z,100259.06
2023-03-15T09:50:57.064Z,100257.16
2023-03-15T09:52:25.773Z,100254.06
2023-03-15T09:53:39.839Z,100269.41
2023-03-15T09:54:55.408Z,100266.69
2023-03-15T09:55:58.542Z,100260.38
2023-03-15T09:57:04.648Z,100261.19
2023-03-15T09:58:17.320Z,100269.41
2023-03-15T09:59:23.091Z,100259.53
2023-03-15T10:00:54.453Z,100263.13
2023-03-15T10:01:59.428Z,100261.19
2023-03-15T10:03:07.140Z,100270.28
2023-03-15T10:04:30.547Z,100267.97
2023-03-15T10:05:35.602Z,100271.81
2023-03-15T10:06:46.213Z,100273.69
2023-03-15T10:07:48.489Z,100278.34
2023-03-15T10:08:55.201Z,100273.94
2023-03-15T10:09:59.150Z,100277.97
2023-03-15T10:11:16.059Z,100278.19
2023-03-15T10:12:41.841Z,100272.94
2023-03-15T10:13:48.209Z,100292.00
2023-03-15T10:15:28.253Z,100282.31
2023-03-15T10:16:46.204Z,100283.63
2023-03-15T10:18:03.853Z,100283.00
2023-03-15T10:19:21.417Z,100291.44
2023-03-15T10:20:27.785Z,100285.34
2023-03-15T10:22:05.424Z,100294.03
2023-03-15T10:23:39.685Z,100291.53
2023-03-15T10:24:51.607Z,100296.16
2023-03-15T10:25:54.465Z,100292.19
2023-03-15T10:27:00.866Z,100293.50
2023-03-15T10:28:10.960Z,100292.66
2023-03-15T10:29:16.711Z,100297.09
2023-03-15T10:30:24.622Z,100301.72
2023-03-15T10:31:44.074Z,100290.38
2023-03-15T10:32:52.621Z,100296.31
2023-03-15T10:33:55.466Z,100300.97
2023-03-15T10:34:58.943Z,100300.97
2023-03-15T10:36:11.539Z,100300.09
2023-03-15T10:37:14.557Z,100302.00
2023-03-15T10:38:20.941Z,100303.69
2023-03-15T10:39:25.850Z,100291.88
2023-03-15T10:40:50.753Z,100306.19
2023-03-15T10:41:53.029Z,100304.53
2023-03-15T10:42:58.080Z,100302.63
2023-03-15T10:44:03.385Z,100302.63
2023-03-15T10:45:20.702Z,100315.00
2023-03-15T10:46:24.114Z,100301.31
2023-03-15T10:47:29.842Z,100300.03
2023-03-15T10:48:38.008Z,100295.41
2023-03-15T10:49:41.952Z,100301.28
2023-03-15T10:50:44.173Z,100301.28
2023-03-15T10:51:51.985Z,100303.53
2023-03-15T10:53:00.156Z,100302.50
2023-03-15T10:54:12.071Z,100310.25
2023-03-15T10:55:20.304Z,100301.59
2023-03-15T10:56:26.665Z,100302.19
2023-03-15T10:57:34.985Z,100297.91
2023-03-15T10:59:09.187Z,100299.59
2023-03-15T11:00:24.146Z,100309.03
2023-03-15T11:01:36.698Z,100303.31
2023-03-15T11:02:39.058Z,100309.16
2023-03-15T11:03:44.172Z,100301.34
2023-03-15T11:04:51.295Z,100306.59
2023-03-15T11:05:58.464Z,100306.34
2023-03-15T11:07:03.399Z,100303.41
2023-03-15T11:08:12.588Z,100309.47
2023-03-15T11:10:34.999Z,100315.94
2023-03-15T11:11:53.583Z,100308.31
2023-03-15T11:13:20.696Z,100315.03
2023-03-15T11:14:23.289Z,100311.22
2023-03-15T11:15:26.652Z,100309.09
2023-03-15T11:16:35.639Z,100305.06
2023-03-15T11:17:45.755Z,100306.50
2023-03-15T11:19:01.872Z,100306.25
2023-03-15T11:20:19.542Z,100307.72
2023-03-15T11:21:33.681Z,100309.97
2023-03-15T11:22:36.011Z,100303.44
2023-03-15T11:23:41.797Z,100308.91
2023-03-15T11:24:46.535Z,100311.41
2023-03-15T11:25:54.692Z,100306.56
2023-03-15T11:27:03.702Z,100308.19
2023-03-15T11:28:06.055Z,100316.22
2023-03-15T11:29:17.650Z,100306.91
2023-03-15T11:30:27.585Z,100305.84
2023-03-15T11:31:32.342Z,100305.00
2023-03-15T11:32:37.741Z,100312.19
2023-03-15T11:33:52.356Z,100307.50
2023-03-15T11:35:07.966Z,100310.03
2023-03-15T11:36:21.188Z,100308.13
2023-03-15T11:37:31.425Z,100307.03
2023-03-15T11:38:37.786Z,100307.03
2023-03-15T11:39:45.860Z,100308.97
2023-03-15T11:40:53.759Z,100310.63
2023-03-15T11:42:04.436Z,100310.88
2023-03-15T11:43:20.338Z,100304.31
2023-03-15T11:44:41.903Z,100310.63
2023-03-15T11:46:02.423Z,100303.47
2023-03-15T11:47:25.434Z,100304.09
2023-03-15T11:48:47.665Z,100302.41
2023-03-15T11:49:53.137Z,100304.91
2023-03-15T11:50:58.681Z,100305.75
2023-03-15T11:52:02.520Z,100301.94
2023-03-15T11:53:07.438Z,100301.69
2023-03-15T11:54:14.815Z,100308.88
2023-03-15T11:55:21.069Z,100307.78
2023-03-15T11:56:26.712Z,100303.13
2023-03-15T11:57:29.025Z,100304.56
2023-03-15T11:58:34.696Z,100295.53
2023-03-15T11:59:47.400Z,100295.53
2023-03-15T12:01:01.288Z,100300.53
2023-03-15T12:02:09.912Z,100293.38
2023-03-15T12:03:36.592Z,100294.81
2023-03-15T12:04:42.978Z,100298.41
2023-03-15T12:05:49.319Z,100288.63
2023-03-15T12:07:05.423Z,100294.94
2023-03-15T12:08:41.636Z,100288.38
2023-03-15T12:09:59.385Z,100298.31
2023-03-15T12:11:11.262Z,100296.16
2023-03-15T12:12:26.187Z,100293.44
2023-03-15T12:13:33.589Z,100292.34
2023-03-15T12:14:37.374Z,100290.44
2023-03-15T12:15:44.965Z,100283.88
2023-03-15T12:16:49.012Z,100294.00
2023-03-15T12:18:02.210Z,100289.97
2023-03-15T12:19:26.372Z,100293.53
2023-03-15T12:20:52.145Z,100291.41
2023-03-15T12:21:58.333Z,100290.56
2023-03-15T12:23:32.926Z,100285.91
2023-03-15T12:24:39.904Z,100292.22
2023-03-15T12:25:57.132Z,100292.22
2023-03-15T12:27:18.674Z,100285.69
2023-03-15T12:28:27.385Z,100292.00
2023-03-15T12:29:32.987Z,100293.66
2023-03-15T12:30:47.570Z,100290.09
2023-03-15T12:31:54.321Z,100291.78
2023-03-15T12:32:57.519Z,100290.09
2023-03-15T12:34:05.456Z,100296.19
2023-03-15T12:35:22.593Z,100287.72
2023-03-15T12:36:40.731Z,100292.97
2023-03-15T12:37:46.535Z,100290.22
2023-03-15T12:39:02.009Z,100293.78
2023-03-15T12:40:16.987Z,100293.59
2023-03-15T12:41:43.904Z,100294.66
2023-03-15T12:42:46.162Z,100292.72
2023-03-15T12:43:52.409Z,100287.00
2023-03-15T12:44:54.697Z,100288.69
2023-03-15T12:45:57.022Z,100288.91
2023-03-15T12:47:04.505Z,100283.19
2023-03-15T12:48:08.744Z,100281.31
2023-03-15T12:49:14.866Z,100290.34
2023-03-15T12:50:46.173Z,100283.81
2023-03-15T12:52:01.401Z,100288.22
2023-03-15T12:53:13.526Z,100283.56
2023-03-15T12:54:16.377Z,100285.47
2023-03-15T12:55:19.964Z,100289.88
2023-03-15T12:56:37.527Z,100289.66
2023-03-15T12:57:47.698Z,100286.91
2023-03-15T12:58:57.523Z,100294.91
2023-03-15T13:00:06.666Z,100290.25
2023-03-15T13:01:19.508Z,100292.75
2023-03-15T13:02:46.227Z,100293.38
2023-03-15T13:03:48.605Z,100295.88
2023-03-15T13:05:00.103Z,100297.53
2023-03-15T13:06:31.194Z,100289.31
2023-03-15T13:07:50.767Z,100289.31